ADDS METAR Data INFO
IDs: Format: Raw Decoded Include TAF

Data at: 0903 UTC 20 Oct 2017

K6A1 200855Z AUTO 36003KT 10SM 12/07 A3024 RMK AO2 T01150074
K6A1 200835Z AUTO 00000KT 10SM 12/08 A3023 RMK AO2 T01200076
K6A1 200815Z AUTO 00000KT 10SM 12/08 A3023 RMK AO2 T01190075
K6A1 200755Z AUTO 01003KT 10SM 12/08 A3024 RMK AO2 T01150075
K6A1 200735Z AUTO 00000KT 10SM 12/08 A3024 RMK AO2 T01150078
K6A1 200715Z AUTO 00000KT 10SM 12/08 A3025 RMK AO2 T01190077
K6A1 200655Z AUTO 00000KT 10SM 12/08 A3025 RMK AO2 T01210077
K6A1 200635Z AUTO 00000KT 10SM 12/08 A3024 RMK AO2 T01190080
K6A1 200615Z AUTO 00000KT 10SM 12/08 A3025 RMK AO2 T01210081
K6A1 200555Z AUTO 00000KT 10SM 12/08 A3025 RMK AO2 T01210081 10175 20116 402510085
K6A1 200535Z AUTO 00000KT 10SM 12/08 A3025 RMK AO2 T01160082
K6A1 200515Z AUTO 00000KT 10SM 12/09 A3025 RMK AO2 T01170085
K6A1 200455Z AUTO 00000KT 10SM 13/09 A3025 RMK AO2 T01250085
K6A1 200435Z AUTO 00000KT 10SM 12/09 A3025 RMK AO2 T01240088
K6A1 200415Z AUTO 00000KT 10SM 13/09 A3025 RMK AO2 T01260090
K6A1 200355Z AUTO 00000KT 10SM 14/09 A3026 RMK AO2 T01390090
K6A1 200335Z AUTO 00000KT 10SM 13/09 A3025 RMK AO2 T01340089
K6A1 200315Z AUTO 00000KT 10SM 13/09 A3025 RMK AO2 T01330091
K6A1 200255Z AUTO 00000KT 10SM 14/10 A3025 RMK AO2 T01440096
K6A1 200235Z AUTO 00000KT 10SM 15/10 A3025 RMK AO2 T01500097
K6A1 200215Z AUTO 00000KT 10SM 15/10 A3024 RMK AO2 T01540099
K6A1 200155Z AUTO 00000KT 10SM 15/10 A3024 RMK AO2 T01500100
K6A1 200135Z AUTO 00000KT 10SM 15/10 A3024 RMK AO2 T01470100
K6A1 200115Z AUTO 00000KT 10SM 16/11 A3023 RMK AO2 T01600105
K6A1 200055Z AUTO 00000KT 10SM 16/11 A3023 RMK AO2 T01590106
K6A1 200035Z AUTO 00000KT 10SM 16/11 A3023 RMK AO2 T01620111
K6A1 200015Z AUTO 00000KT 10SM 17/12 A3023 RMK AO2 T01720115
K6A1 192355Z AUTO 00000KT 10SM 17/12 A3022 RMK AO2 T01730115 10251 20173
K6A1 192335Z AUTO 00000KT 10SM 19/12 A3022 RMK AO2 T01870115
K6A1 192315Z AUTO 00000KT 10SM 19/12 A3021 RMK AO2 T01880115
K6A1 192255Z AUTO 36003KT 10SM 21/11 A3021 RMK AO2 T02100112
K6A1 192235Z AUTO 01003KT 10SM 23/11 A3021 RMK AO2 T02260110
K6A1 192215Z AUTO 02006KT 10SM 24/11 A3021 RMK AO2 T02360110
K6A1 192155Z AUTO 02005KT 10SM 24/11 A3021 RMK AO2 T02420109
K6A1 192135Z AUTO 02005KT 10SM 25/11 A3021 RMK AO2 T02450105
K6A1 192115Z AUTO 02007KT 10SM 25/10 A3021 RMK AO2 T02460102
K6A1 192055Z AUTO 02006KT 10SM 25/11 A3021 RMK AO2 T02470106
K6A1 192035Z AUTO 01008KT 10SM 25/11 A3021 RMK AO2 T02500108
K6A1 192015Z AUTO 04006KT 10SM 25/11 A3022 RMK AO2 T02490109
K6A1 191955Z AUTO 35003KT 10SM 25/11 A3022 RMK AO2 T02500110
K6A1 191935Z AUTO 02005KT 10SM 25/11 A3022 RMK AO2 T02470111
K6A1 191915Z AUTO 02005KT 10SM 24/11 A3023 RMK AO2 T02430111
K6A1 191855Z AUTO 35006KT 10SM 24/11 A3023 RMK AO2 T02400111
K6A1 191835Z AUTO 04005KT 10SM 24/11 A3024 RMK AO2 T02430113
K6A1 191815Z AUTO 08006KT 10SM 24/11 A3025 RMK AO2 T02440105
K6A1 191755Z AUTO 11003KT 10SM 24/11 A3027 RMK AO2 T02350109 10238 20087
K6A1 191735Z AUTO 36006KT 10SM 23/11 A3028 RMK AO2 T02300110
K6A1 191715Z AUTO 03005KT 10SM 23/11 A3029 RMK AO2 T02250111
K6A1 191655Z AUTO 04004KT 10SM 22/11 A3030 RMK AO2 T02200111
K6A1 191635Z AUTO 08007KT 10SM 22/11 A3031 RMK AO2 T02210111
K6A1 191615Z AUTO 06005KT 10SM 21/11 A3032 RMK AO2 T02090109
K6A1 191555Z AUTO 06004KT 10SM 20/11 A3032 RMK AO2 T02020106
K6A1 191535Z AUTO 06005KT 10SM 19/10 A3032 RMK AO2 T01940104
K6A1 191515Z AUTO 05007KT 10SM 19/10 A3032 RMK AO2 T01860101
K6A1 191455Z AUTO 05008KT 10SM 18/09 A3032 RMK AO2 T01750093
K6A1 191435Z AUTO 05006KT 10SM 16/09 A3032 RMK AO2 T01620085
K6A1 191415Z AUTO 05005KT 10SM 15/08 A3031 RMK AO2 T01540077
K6A1 191355Z AUTO 09005KT 10SM 15/08 A3031 RMK AO2 T01450078
K6A1 191335Z AUTO 06005KT 10SM 14/07 A3031 RMK AO2 T01350074
K6A1 191315Z AUTO 03004KT 10SM 12/07 A3030 RMK AO2 T01190071
K6A1 191255Z AUTO 03003KT 10SM 11/07 A3029 RMK AO2 T01070066
K6A1 191235Z AUTO 02003KT 10SM 10/07 A3028 RMK AO2 T01000066
K6A1 191215Z AUTO 02004KT 10SM 09/06 A3028 RMK AO2 T00900064
K6A1 191155Z AUTO 02004KT 10SM 09/06 A3027 RMK AO2 T00870060 10117 20085
K6A1 191135Z AUTO 02004KT 10SM 09/06 A3028 RMK AO2 T00870061
K6A1 191115Z AUTO 02004KT 10SM 09/06 A3027 RMK AO2 T00880060
K6A1 191055Z AUTO 02005KT 10SM 09/06 A3027 RMK AO2 T00880061
K6A1 191035Z AUTO 02005KT 10SM 09/06 A3026 RMK AO2 T00900062
K6A1 191015Z AUTO 01004KT 10SM 09/06 A3025 RMK AO2 T00930062
K6A1 190955Z AUTO 01003KT 10SM 10/06 A3025 RMK AO2 T00950062
K6A1 190935Z AUTO 02004KT 10SM 09/06 A3025 RMK AO2 T00920063
K6A1 190915Z AUTO 36004KT 10SM 10/06 A3024 RMK AO2 T00960064
K6A1 190855Z AUTO 02003KT 10SM 09/06 A3024 RMK AO2 T00900060
K6A1 190835Z AUTO 00000KT 10SM 09/06 A3024 RMK AO2 T00900061
K6A1 190815Z AUTO 00000KT 10SM 09/06 A3024 RMK AO2 T00890060
K6A1 190755Z AUTO 00000KT 10SM 09/06 A3025 RMK AO2 T00940062
K6A1 190735Z AUTO 00000KT 10SM 10/06 A3025 RMK AO2 T01000064
K6A1 190715Z AUTO 01003KT 10SM 10/07 A3025 RMK AO2 T01020065
K6A1 190655Z AUTO 36004KT 10SM 11/06 A3026 RMK AO2 T01070063
K6A1 190635Z AUTO 02003KT 10SM 10/06 A3025 RMK AO2 T01040061
K6A1 190615Z AUTO 00000KT 10SM 11/06 A3025 RMK AO2 T01090061
K6A1 190555Z AUTO 07003KT 10SM 12/06 A3026 RMK AO2 T01160063 10157 20104 402360061
K6A1 190535Z AUTO 00000KT 10SM 12/06 A3026 RMK AO2 T01200061
K6A1 190515Z AUTO 00000KT 10SM 12/06 A3027 RMK AO2 T01210061
K6A1 190455Z AUTO 08003KT 10SM 12/06 A3027 RMK AO2 T01230062
K6A1 190435Z AUTO 00000KT 10SM 10/06 A3028 RMK AO2 T01040058
K6A1 190415Z AUTO 00000KT 10SM 12/06 A3028 RMK AO2 T01190061
K6A1 190355Z AUTO 00000KT 10SM 12/06 A3028 RMK AO2 T01220061
K6A1 190335Z AUTO 00000KT 10SM 13/06 A3028 RMK AO2 T01280062
K6A1 190315Z AUTO 00000KT 10SM 13/06 A3029 RMK AO2 T01290063
K6A1 190255Z AUTO 08003KT 10SM 13/06 A3029 RMK AO2 T01300064
K6A1 190235Z AUTO 00000KT 10SM 13/06 A3028 RMK AO2 T01330063
K6A1 190215Z AUTO 00000KT 10SM 14/06 A3029 RMK AO2 T01390063
K6A1 190155Z AUTO 00000KT 10SM 14/07 A3028 RMK AO2 T01410065
K6A1 190135Z AUTO 00000KT 10SM 14/07 A3028 RMK AO2 T01380065
K6A1 190115Z AUTO 00000KT 10SM 14/07 A3028 RMK AO2 T01410065
K6A1 190055Z AUTO 00000KT 10SM 15/07 A3027 RMK AO2 T01450065
K6A1 190035Z AUTO 00000KT 10SM 15/07 A3027 RMK AO2 T01470065
K6A1 190015Z AUTO 00000KT 10SM 15/06 A3027 RMK AO2 T01500062
K6A1 182355Z AUTO 00000KT 10SM 16/06 A3026 RMK AO2 T01580060 10236 20158
K6A1 182335Z AUTO 00000KT 10SM 17/06 A3026 RMK AO2 T01660055
K6A1 182315Z AUTO 06003KT 10SM 18/05 A3025 RMK AO2 T01830049
K6A1 182255Z AUTO 07004KT 10SM 19/04 A3025 RMK AO2 T01940040
K6A1 182235Z AUTO 06005KT 10SM 21/03 A3024 RMK AO2 T02060034
K6A1 182215Z AUTO 06005KT 10SM 22/03 A3023 RMK AO2 T02150026
K6A1 182155Z AUTO 05006KT 10SM 22/03 A3023 RMK AO2 T02200025
K6A1 182135Z AUTO 04006KT 10SM 22/03 A3023 RMK AO2 T02230027
K6A1 182115Z AUTO 05008KT 10SM 23/02 A3023 RMK AO2 T02270021